Terminal Aerodrome Forecast
Issued by NWS Mt. Holly, NJ

Home | Current Version | Previous Version | Text Only | Print | Product List | Glossary On
Versions: 1 2 3 4 5 6 7 8 9 10 11 12 13 14 15 16 17 18 19 20 21 22 23 24 25 26 27 28 29 30 31 32 33
000
FTAK31 PANC 021740
TAFABE
TAF
PABE 021740Z 0218/0318 24010KT 5SM BR OVC008
      TEMPO 0218/0221 1SM -RA BR OVC003
     FM022200 29006KT P6SM VCSH SCT005 BKN012 OVC025=

USA.gov is the U.S. government's official web portal to all federal, state and local government web resources and services.